sensor_id;sensor_type;location;lat;lon;timestamp;P1;durP1;ratioP1;P2;durP2;ratioP2
13953;SDS011;7049;49.444;8.522;2022-08-19T00:03:08;2.47;;;2.27;;
13953;SDS011;7049;49.444;8.522;2022-08-19T00:08:10;1.97;;;1.87;;
13953;SDS011;7049;49.444;8.522;2022-08-19T00:13:13;1.83;;;1.73;;
13953;SDS011;7049;49.444;8.522;2022-08-19T00:18:15;2.73;;;2.53;;
13953;SDS011;7049;49.444;8.522;2022-08-19T00:23:17;2.03;;;1.83;;
13953;SDS011;7049;49.444;8.522;2022-08-19T00:28:20;2.00;;;1.90;;
13953;SDS011;7049;49.444;8.522;2022-08-19T00:33:21;2.43;;;2.23;;
13953;SDS011;7049;49.444;8.522;2022-08-19T00:38:23;2.63;;;2.43;;
13953;SDS011;7049;49.444;8.522;2022-08-19T00:43:27;3.07;;;2.37;;
13953;SDS011;7049;49.444;8.522;2022-08-19T00:48:29;2.20;;;2.00;;
13953;SDS011;7049;49.444;8.522;2022-08-19T00:53:30;2.33;;;2.23;;
13953;SDS011;7049;49.444;8.522;2022-08-19T00:58:35;2.60;;;2.40;;
13953;SDS011;7049;49.444;8.522;2022-08-19T01:03:37;1.73;;;1.63;;
13953;SDS011;7049;49.444;8.522;2022-08-19T01:08:38;1.90;;;1.60;;
13953;SDS011;7049;49.444;8.522;2022-08-19T01:13:41;3.10;;;1.80;;
13953;SDS011;7049;49.444;8.522;2022-08-19T01:18:43;2.07;;;1.97;;
13953;SDS011;7049;49.444;8.522;2022-08-19T01:23:45;2.40;;;2.20;;
13953;SDS011;7049;49.444;8.522;2022-08-19T01:28:49;2.43;;;1.87;;
13953;SDS011;7049;49.444;8.522;2022-08-19T01:33:52;1.80;;;1.70;;
13953;SDS011;7049;49.444;8.522;2022-08-19T01:38:58;2.27;;;2.07;;
13953;SDS011;7049;49.444;8.522;2022-08-19T01:44:00;2.20;;;2.00;;
13953;SDS011;7049;49.444;8.522;2022-08-19T01:49:05;1.93;;;1.83;;
13953;SDS011;7049;49.444;8.522;2022-08-19T01:54:09;2.43;;;2.23;;
13953;SDS011;7049;49.444;8.522;2022-08-19T01:59:12;1.70;;;1.60;;
13953;SDS011;7049;49.444;8.522;2022-08-19T02:04:17;2.80;;;2.37;;
13953;SDS011;7049;49.444;8.522;2022-08-19T02:09:20;2.20;;;2.00;;
13953;SDS011;7049;49.444;8.522;2022-08-19T02:14:21;2.57;;;2.40;;
13953;SDS011;7049;49.444;8.522;2022-08-19T02:19:23;2.23;;;2.10;;
13953;SDS011;7049;49.444;8.522;2022-08-19T02:24:26;3.80;;;3.00;;
13953;SDS011;7049;49.444;8.522;2022-08-19T02:29:28;2.50;;;2.30;;
13953;SDS011;7049;49.444;8.522;2022-08-19T02:34:29;2.70;;;2.50;;
13953;SDS011;7049;49.444;8.522;2022-08-19T02:39:32;2.13;;;1.83;;
13953;SDS011;7049;49.444;8.522;2022-08-19T02:44:34;3.70;;;1.63;;
13953;SDS011;7049;49.444;8.522;2022-08-19T02:49:35;1.77;;;1.67;;
13953;SDS011;7049;49.444;8.522;2022-08-19T02:54:38;1.73;;;1.63;;
13953;SDS011;7049;49.444;8.522;2022-08-19T02:59:40;1.93;;;1.77;;
13953;SDS011;7049;49.444;8.522;2022-08-19T03:04:41;2.63;;;2.40;;
13953;SDS011;7049;49.444;8.522;2022-08-19T03:09:44;1.93;;;1.83;;
13953;SDS011;7049;49.444;8.522;2022-08-19T03:14:46;3.53;;;2.03;;
13953;SDS011;7049;49.444;8.522;2022-08-19T03:19:47;1.97;;;1.60;;
13953;SDS011;7049;49.444;8.522;2022-08-19T03:24:50;2.47;;;1.87;;
13953;SDS011;7049;49.444;8.522;2022-08-19T03:29:53;2.47;;;2.27;;
13953;SDS011;7049;49.444;8.522;2022-08-19T03:34:54;2.83;;;2.53;;
13953;SDS011;7049;49.444;8.522;2022-08-19T03:39:58;2.33;;;2.23;;
13953;SDS011;7049;49.444;8.522;2022-08-19T03:44:59;2.13;;;1.93;;
13953;SDS011;7049;49.444;8.522;2022-08-19T03:50:01;11.43;;;2.53;;
13953;SDS011;7049;49.444;8.522;2022-08-19T04:00:26;2.03;;;1.90;;
13953;SDS011;7049;49.444;8.522;2022-08-19T04:05:28;5.50;;;1.90;;
13953;SDS011;7049;49.444;8.522;2022-08-19T04:10:36;2.10;;;1.90;;
13953;SDS011;7049;49.444;8.522;2022-08-19T04:15:50;2.63;;;1.90;;
13953;SDS011;7049;49.444;8.522;2022-08-19T04:20:51;1.77;;;1.67;;
13953;SDS011;7049;49.444;8.522;2022-08-19T04:25:54;2.30;;;2.10;;
13953;SDS011;7049;49.444;8.522;2022-08-19T04:30:56;2.00;;;1.80;;
13953;SDS011;7049;49.444;8.522;2022-08-19T04:35:58;4.53;;;2.00;;
13953;SDS011;7049;49.444;8.522;2022-08-19T04:41:02;2.20;;;2.10;;
13953;SDS011;7049;49.444;8.522;2022-08-19T04:46:22;2.50;;;2.40;;
13953;SDS011;7049;49.444;8.522;2022-08-19T04:51:32;2.93;;;2.30;;
13953;SDS011;7049;49.444;8.522;2022-08-19T04:56:48;2.60;;;2.20;;
13953;SDS011;7049;49.444;8.522;2022-08-19T05:01:50;1.80;;;1.70;;
13953;SDS011;7049;49.444;8.522;2022-08-19T05:06:52;2.60;;;2.40;;
13953;SDS011;7049;49.444;8.522;2022-08-19T05:11:55;3.00;;;2.37;;
13953;SDS011;7049;49.444;8.522;2022-08-19T05:16:57;2.63;;;1.87;;
13953;SDS011;7049;49.444;8.522;2022-08-19T05:21:58;2.10;;;1.90;;
13953;SDS011;7049;49.444;8.522;2022-08-19T05:27:19;2.47;;;1.83;;
13953;SDS011;7049;49.444;8.522;2022-08-19T05:32:21;1.87;;;1.77;;
13953;SDS011;7049;49.444;8.522;2022-08-19T05:37:23;2.50;;;2.30;;
13953;SDS011;7049;49.444;8.522;2022-08-19T05:42:28;2.97;;;1.90;;
13953;SDS011;7049;49.444;8.522;2022-08-19T05:47:30;2.20;;;2.00;;
13953;SDS011;7049;49.444;8.522;2022-08-19T05:52:32;2.37;;;1.80;;
13953;SDS011;7049;49.444;8.522;2022-08-19T05:57:37;1.97;;;1.77;;
13953;SDS011;7049;49.444;8.522;2022-08-19T06:02:39;2.17;;;2.07;;
13953;SDS011;7049;49.444;8.522;2022-08-19T06:07:40;2.83;;;1.97;;
13953;SDS011;7049;49.444;8.522;2022-08-19T06:12:43;1.37;;;1.27;;
13953;SDS011;7049;49.444;8.522;2022-08-19T06:17:45;2.37;;;2.20;;
13953;SDS011;7049;49.444;8.522;2022-08-19T06:22:47;1.60;;;1.50;;
13953;SDS011;7049;49.444;8.522;2022-08-19T06:27:52;1.77;;;1.67;;
13953;SDS011;7049;49.444;8.522;2022-08-19T06:32:54;3.73;;;1.60;;
13953;SDS011;7049;49.444;8.522;2022-08-19T06:37:55;1.73;;;1.63;;
13953;SDS011;7049;49.444;8.522;2022-08-19T06:42:59;2.17;;;1.47;;
13953;SDS011;7049;49.444;8.522;2022-08-19T06:48:10;1.93;;;1.83;;
13953;SDS011;7049;49.444;8.522;2022-08-19T06:53:12;2.13;;;1.90;;
13953;SDS011;7049;49.444;8.522;2022-08-19T06:58:15;2.57;;;2.07;;
13953;SDS011;7049;49.444;8.522;2022-08-19T07:03:16;1.37;;;1.30;;
13953;SDS011;7049;49.444;8.522;2022-08-19T07:08:18;2.03;;;1.83;;
13953;SDS011;7049;49.444;8.522;2022-08-19T07:13:21;1.47;;;1.07;;
13953;SDS011;7049;49.444;8.522;2022-08-19T07:18:22;1.30;;;1.07;;
13953;SDS011;7049;49.444;8.522;2022-08-19T07:23:24;1.30;;;1.23;;
13953;SDS011;7049;49.444;8.522;2022-08-19T07:28:27;1.43;;;1.30;;
13953;SDS011;7049;49.444;8.522;2022-08-19T07:33:28;1.30;;;1.30;;
13953;SDS011;7049;49.444;8.522;2022-08-19T07:38:33;1.53;;;1.43;;
13953;SDS011;7049;49.444;8.522;2022-08-19T07:43:36;1.93;;;1.73;;
13953;SDS011;7049;49.444;8.522;2022-08-19T07:48:37;1.43;;;1.33;;
13953;SDS011;7049;49.444;8.522;2022-08-19T07:53:39;1.30;;;1.30;;
13953;SDS011;7049;49.444;8.522;2022-08-19T07:58:43;2.10;;;1.97;;
13953;SDS011;7049;49.444;8.522;2022-08-19T08:03:46;1.47;;;1.37;;
13953;SDS011;7049;49.444;8.522;2022-08-19T08:09:07;1.53;;;1.43;;
13953;SDS011;7049;49.444;8.522;2022-08-19T08:14:13;1.73;;;1.63;;
13953;SDS011;7049;49.444;8.522;2022-08-19T08:19:15;1.20;;;1.10;;
13953;SDS011;7049;49.444;8.522;2022-08-19T08:24:18;1.33;;;1.23;;
13953;SDS011;7049;49.444;8.522;2022-08-19T08:29:21;1.83;;;1.13;;
13953;SDS011;7049;49.444;8.522;2022-08-19T08:34:23;1.43;;;1.23;;
13953;SDS011;7049;49.444;8.522;2022-08-19T08:39:24;0.93;;;0.93;;
13953;SDS011;7049;49.444;8.522;2022-08-19T08:44:28;1.00;;;1.00;;
13953;SDS011;7049;49.444;8.522;2022-08-19T08:49:36;1.17;;;1.17;;
13953;SDS011;7049;49.444;8.522;2022-08-19T08:54:46;0.93;;;0.93;;
13953;SDS011;7049;49.444;8.522;2022-08-19T08:59:50;1.00;;;1.00;;
13953;SDS011;7049;49.444;8.522;2022-08-19T09:04:54;3.40;;;1.10;;
13953;SDS011;7049;49.444;8.522;2022-08-19T09:09:57;0.87;;;0.87;;
13953;SDS011;7049;49.444;8.522;2022-08-19T09:15:12;0.90;;;0.90;;
13953;SDS011;7049;49.444;8.522;2022-08-19T09:20:18;1.43;;;1.37;;
13953;SDS011;7049;49.444;8.522;2022-08-19T09:25:21;1.00;;;1.00;;
13953;SDS011;7049;49.444;8.522;2022-08-19T09:30:26;1.20;;;1.20;;
13953;SDS011;7049;49.444;8.522;2022-08-19T09:35:29;1.17;;;1.13;;
13953;SDS011;7049;49.444;8.522;2022-08-19T09:40:31;1.10;;;1.10;;
13953;SDS011;7049;49.444;8.522;2022-08-19T09:45:34;3.93;;;1.00;;
13953;SDS011;7049;49.444;8.522;2022-08-19T09:50:36;1.53;;;1.43;;
13953;SDS011;7049;49.444;8.522;2022-08-19T09:55:41;1.10;;;1.10;;
13953;SDS011;7049;49.444;8.522;2022-08-19T10:00:44;1.00;;;1.00;;
13953;SDS011;7049;49.444;8.522;2022-08-19T10:05:46;1.37;;;1.37;;
13953;SDS011;7049;49.444;8.522;2022-08-19T10:10:51;1.00;;;0.97;;
13953;SDS011;7049;49.444;8.522;2022-08-19T10:15:55;1.17;;;1.10;;
13953;SDS011;7049;49.444;8.522;2022-08-19T10:21:04;1.10;;;0.97;;
13953;SDS011;7049;49.444;8.522;2022-08-19T10:26:08;1.37;;;1.37;;
13953;SDS011;7049;49.444;8.522;2022-08-19T10:31:12;1.60;;;1.50;;
13953;SDS011;7049;49.444;8.522;2022-08-19T10:36:18;2.07;;;1.30;;
13953;SDS011;7049;49.444;8.522;2022-08-19T10:41:23;1.40;;;1.30;;
13953;SDS011;7049;49.444;8.522;2022-08-19T10:46:28;1.20;;;1.20;;
13953;SDS011;7049;49.444;8.522;2022-08-19T10:51:38;1.00;;;1.00;;
13953;SDS011;7049;49.444;8.522;2022-08-19T10:56:58;1.30;;;1.20;;
13953;SDS011;7049;49.444;8.522;2022-08-19T11:02:10;1.87;;;1.77;;
13953;SDS011;7049;49.444;8.522;2022-08-19T11:07:12;1.63;;;1.53;;
13953;SDS011;7049;49.444;8.522;2022-08-19T11:12:14;1.70;;;1.60;;
13953;SDS011;7049;49.444;8.522;2022-08-19T11:17:17;1.83;;;1.73;;
13953;SDS011;7049;49.444;8.522;2022-08-19T11:22:19;1.30;;;1.30;;
13953;SDS011;7049;49.444;8.522;2022-08-19T11:27:21;1.60;;;1.50;;
13953;SDS011;7049;49.444;8.522;2022-08-19T11:32:23;1.50;;;1.50;;
13953;SDS011;7049;49.444;8.522;2022-08-19T11:37:25;1.63;;;1.53;;
13953;SDS011;7049;49.444;8.522;2022-08-19T11:42:27;1.57;;;1.30;;
13953;SDS011;7049;49.444;8.522;2022-08-19T11:47:47;1.13;;;1.13;;
13953;SDS011;7049;49.444;8.522;2022-08-19T11:52:49;1.43;;;1.33;;
13953;SDS011;7049;49.444;8.522;2022-08-19T11:57:51;1.60;;;1.50;;
13953;SDS011;7049;49.444;8.522;2022-08-19T12:02:54;1.20;;;1.20;;
13953;SDS011;7049;49.444;8.522;2022-08-19T12:07:55;1.20;;;1.20;;
13953;SDS011;7049;49.444;8.522;2022-08-19T12:12:57;1.43;;;1.43;;
13953;SDS011;7049;49.444;8.522;2022-08-19T12:18:00;1.33;;;1.27;;
13953;SDS011;7049;49.444;8.522;2022-08-19T12:23:01;1.27;;;1.17;;
13953;SDS011;7049;49.444;8.522;2022-08-19T12:28:03;2.50;;;1.70;;
13953;SDS011;7049;49.444;8.522;2022-08-19T12:33:06;1.50;;;1.40;;
13953;SDS011;7049;49.444;8.522;2022-08-19T12:38:07;1.90;;;1.20;;
13953;SDS011;7049;49.444;8.522;2022-08-19T12:43:09;1.33;;;1.33;;
13953;SDS011;7049;49.444;8.522;2022-08-19T12:48:13;1.33;;;1.27;;
13953;SDS011;7049;49.444;8.522;2022-08-19T12:53:15;1.47;;;1.40;;
13953;SDS011;7049;49.444;8.522;2022-08-19T12:58:17;1.90;;;1.23;;
13953;SDS011;7049;49.444;8.522;2022-08-19T13:03:20;4.20;;;1.87;;
13953;SDS011;7049;49.444;8.522;2022-08-19T13:08:27;1.07;;;1.07;;
13953;SDS011;7049;49.444;8.522;2022-08-19T13:13:28;1.10;;;1.10;;
13953;SDS011;7049;49.444;8.522;2022-08-19T13:18:31;1.40;;;1.30;;
13953;SDS011;7049;49.444;8.522;2022-08-19T13:23:33;1.33;;;1.33;;
13953;SDS011;7049;49.444;8.522;2022-08-19T13:28:36;1.30;;;1.20;;
13953;SDS011;7049;49.444;8.522;2022-08-19T13:33:56;1.10;;;1.10;;
13953;SDS011;7049;49.444;8.522;2022-08-19T13:38:58;1.07;;;1.07;;
13953;SDS011;7049;49.444;8.522;2022-08-19T13:43:59;1.80;;;1.70;;
13953;SDS011;7049;49.444;8.522;2022-08-19T13:49:03;1.13;;;1.13;;
13953;SDS011;7049;49.444;8.522;2022-08-19T13:54:04;1.37;;;1.00;;
13953;SDS011;7049;49.444;8.522;2022-08-19T13:59:06;1.30;;;1.30;;
13953;SDS011;7049;49.444;8.522;2022-08-19T14:04:08;1.40;;;1.40;;
13953;SDS011;7049;49.444;8.522;2022-08-19T14:09:10;1.57;;;1.47;;
13953;SDS011;7049;49.444;8.522;2022-08-19T14:14:11;1.10;;;1.10;;
13953;SDS011;7049;49.444;8.522;2022-08-19T14:19:14;1.30;;;1.20;;
13953;SDS011;7049;49.444;8.522;2022-08-19T14:24:16;0.80;;;0.80;;
13953;SDS011;7049;49.444;8.522;2022-08-19T14:29:17;0.80;;;0.80;;
13953;SDS011;7049;49.444;8.522;2022-08-19T14:34:20;1.38;;;1.02;;
13953;SDS011;7049;49.444;8.522;2022-08-19T14:39:22;1.10;;;1.10;;
13953;SDS011;7049;49.444;8.522;2022-08-19T14:44:23;0.80;;;0.80;;
13953;SDS011;7049;49.444;8.522;2022-08-19T14:49:26;1.05;;;1.05;;
13953;SDS011;7049;49.444;8.522;2022-08-19T14:54:27;0.80;;;0.80;;
13953;SDS011;7049;49.444;8.522;2022-08-19T14:59:29;0.97;;;0.97;;
13953;SDS011;7049;49.444;8.522;2022-08-19T15:04:32;0.87;;;0.87;;
13953;SDS011;7049;49.444;8.522;2022-08-19T15:09:36;0.90;;;0.90;;
13953;SDS011;7049;49.444;8.522;2022-08-19T15:14:37;0.77;;;0.77;;
13953;SDS011;7049;49.444;8.522;2022-08-19T15:19:43;3.10;;;1.00;;
13953;SDS011;7049;49.444;8.522;2022-08-19T15:24:45;0.90;;;0.90;;
13953;SDS011;7049;49.444;8.522;2022-08-19T15:29:46;0.90;;;0.90;;
13953;SDS011;7049;49.444;8.522;2022-08-19T15:34:49;1.10;;;1.10;;
13953;SDS011;7049;49.444;8.522;2022-08-19T15:39:50;1.00;;;1.00;;
13953;SDS011;7049;49.444;8.522;2022-08-19T15:44:52;0.87;;;0.87;;
13953;SDS011;7049;49.444;8.522;2022-08-19T15:49:55;1.10;;;1.10;;
13953;SDS011;7049;49.444;8.522;2022-08-19T15:54:56;1.10;;;1.10;;
13953;SDS011;7049;49.444;8.522;2022-08-19T15:59:58;1.00;;;1.00;;
13953;SDS011;7049;49.444;8.522;2022-08-19T16:05:19;0.80;;;0.80;;
13953;SDS011;7049;49.444;8.522;2022-08-19T16:10:41;0.90;;;0.90;;
13953;SDS011;7049;49.444;8.522;2022-08-19T16:15:42;1.10;;;1.10;;
13953;SDS011;7049;49.444;8.522;2022-08-19T16:20:45;1.30;;;1.30;;
13953;SDS011;7049;49.444;8.522;2022-08-19T16:25:47;0.90;;;0.90;;
13953;SDS011;7049;49.444;8.522;2022-08-19T16:30:49;1.00;;;1.00;;
13953;SDS011;7049;49.444;8.522;2022-08-19T16:35:52;1.40;;;1.30;;
13953;SDS011;7049;49.444;8.522;2022-08-19T16:40:53;1.07;;;1.03;;
13953;SDS011;7049;49.444;8.522;2022-08-19T16:45:56;1.20;;;1.20;;
13953;SDS011;7049;49.444;8.522;2022-08-19T16:50:59;1.40;;;1.30;;
13953;SDS011;7049;49.444;8.522;2022-08-19T16:56:01;1.13;;;1.13;;
13953;SDS011;7049;49.444;8.522;2022-08-19T17:01:04;1.10;;;1.10;;
13953;SDS011;7049;49.444;8.522;2022-08-19T17:06:10;1.27;;;1.13;;
13953;SDS011;7049;49.444;8.522;2022-08-19T17:11:13;2.07;;;0.97;;
13953;SDS011;7049;49.444;8.522;2022-08-19T17:16:14;1.20;;;1.20;;
13953;SDS011;7049;49.444;8.522;2022-08-19T17:21:18;1.20;;;1.10;;
13953;SDS011;7049;49.444;8.522;2022-08-19T17:26:20;1.10;;;1.10;;
13953;SDS011;7049;49.444;8.522;2022-08-19T17:31:23;3.63;;;1.30;;
13953;SDS011;7049;49.444;8.522;2022-08-19T17:36:29;2.67;;;1.50;;
13953;SDS011;7049;49.444;8.522;2022-08-19T17:41:32;3.47;;;1.23;;
13953;SDS011;7049;49.444;8.522;2022-08-19T17:46:34;0.83;;;0.83;;
13953;SDS011;7049;49.444;8.522;2022-08-19T17:51:39;1.00;;;1.00;;
13953;SDS011;7049;49.444;8.522;2022-08-19T17:56:42;0.73;;;0.73;;
13953;SDS011;7049;49.444;8.522;2022-08-19T18:01:45;1.00;;;1.00;;
13953;SDS011;7049;49.444;8.522;2022-08-19T18:06:50;0.80;;;0.80;;
13953;SDS011;7049;49.444;8.522;2022-08-19T18:11:52;1.27;;;1.27;;
13953;SDS011;7049;49.444;8.522;2022-08-19T18:16:56;0.97;;;0.97;;
13953;SDS011;7049;49.444;8.522;2022-08-19T18:21:59;1.17;;;1.17;;
13953;SDS011;7049;49.444;8.522;2022-08-19T18:27:00;1.50;;;1.40;;
13953;SDS011;7049;49.444;8.522;2022-08-19T18:32:02;1.13;;;1.13;;
13953;SDS011;7049;49.444;8.522;2022-08-19T18:37:05;1.10;;;1.10;;
13953;SDS011;7049;49.444;8.522;2022-08-19T18:42:11;1.60;;;1.50;;
13953;SDS011;7049;49.444;8.522;2022-08-19T18:47:31;1.50;;;1.40;;
13953;SDS011;7049;49.444;8.522;2022-08-19T18:52:51;0.97;;;0.97;;
13953;SDS011;7049;49.444;8.522;2022-08-19T18:57:53;2.37;;;1.20;;
13953;SDS011;7049;49.444;8.522;2022-08-19T19:02:55;1.27;;;1.20;;
13953;SDS011;7049;49.444;8.522;2022-08-19T19:07:57;1.43;;;1.43;;
13953;SDS011;7049;49.444;8.522;2022-08-19T19:12:59;1.40;;;1.40;;
13953;SDS011;7049;49.444;8.522;2022-08-19T19:18:01;1.67;;;1.57;;
13953;SDS011;7049;49.444;8.522;2022-08-19T19:23:03;1.43;;;1.33;;
13953;SDS011;7049;49.444;8.522;2022-08-19T19:28:07;1.17;;;1.17;;
13953;SDS011;7049;49.444;8.522;2022-08-19T19:33:08;1.40;;;1.30;;
13953;SDS011;7049;49.444;8.522;2022-08-19T19:38:11;0.73;;;0.73;;
13953;SDS011;7049;49.444;8.522;2022-08-19T19:43:13;1.20;;;1.20;;
13953;SDS011;7049;49.444;8.522;2022-08-19T19:48:17;0.77;;;0.77;;
13953;SDS011;7049;49.444;8.522;2022-08-19T19:53:20;1.40;;;1.33;;
13953;SDS011;7049;49.444;8.522;2022-08-19T19:58:23;1.30;;;1.20;;
13953;SDS011;7049;49.444;8.522;2022-08-19T20:03:25;1.60;;;1.50;;
13953;SDS011;7049;49.444;8.522;2022-08-19T20:08:28;1.30;;;1.20;;
13953;SDS011;7049;49.444;8.522;2022-08-19T20:13:47;1.10;;;1.10;;
13953;SDS011;7049;49.444;8.522;2022-08-19T20:18:48;1.50;;;1.40;;
13953;SDS011;7049;49.444;8.522;2022-08-19T20:23:51;1.90;;;1.67;;
13953;SDS011;7049;49.444;8.522;2022-08-19T20:28:53;1.13;;;1.07;;
13953;SDS011;7049;49.444;8.522;2022-08-19T20:33:56;1.73;;;1.63;;
13953;SDS011;7049;49.444;8.522;2022-08-19T20:38:59;1.93;;;1.70;;
13953;SDS011;7049;49.444;8.522;2022-08-19T20:44:01;1.60;;;1.40;;
13953;SDS011;7049;49.444;8.522;2022-08-19T20:49:04;2.13;;;1.27;;
13953;SDS011;7049;49.444;8.522;2022-08-19T20:54:07;1.57;;;1.47;;
13953;SDS011;7049;49.444;8.522;2022-08-19T20:59:08;1.33;;;1.23;;
13953;SDS011;7049;49.444;8.522;2022-08-19T21:04:10;1.20;;;1.20;;
13953;SDS011;7049;49.444;8.522;2022-08-19T21:09:13;1.10;;;1.10;;
13953;SDS011;7049;49.444;8.522;2022-08-19T21:14:15;2.30;;;1.40;;
13953;SDS011;7049;49.444;8.522;2022-08-19T21:19:16;1.77;;;1.67;;
13953;SDS011;7049;49.444;8.522;2022-08-19T21:24:19;1.13;;;1.13;;
13953;SDS011;7049;49.444;8.522;2022-08-19T21:29:21;1.43;;;1.23;;
13953;SDS011;7049;49.444;8.522;2022-08-19T21:34:22;1.40;;;1.40;;
13953;SDS011;7049;49.444;8.522;2022-08-19T21:39:25;1.27;;;1.27;;
13953;SDS011;7049;49.444;8.522;2022-08-19T21:44:27;1.00;;;1.00;;
13953;SDS011;7049;49.444;8.522;2022-08-19T21:49:29;1.10;;;1.10;;
13953;SDS011;7049;49.444;8.522;2022-08-19T21:54:32;3.97;;;1.53;;
13953;SDS011;7049;49.444;8.522;2022-08-19T21:59:34;0.90;;;0.90;;
13953;SDS011;7049;49.444;8.522;2022-08-19T22:04:35;1.50;;;1.40;;
13953;SDS011;7049;49.444;8.522;2022-08-19T22:09:41;3.13;;;0.90;;
13953;SDS011;7049;49.444;8.522;2022-08-19T22:14:43;1.43;;;1.33;;
13953;SDS011;7049;49.444;8.522;2022-08-19T22:19:45;0.73;;;0.73;;
13953;SDS011;7049;49.444;8.522;2022-08-19T22:24:48;0.97;;;0.97;;
13953;SDS011;7049;49.444;8.522;2022-08-19T22:29:50;1.10;;;1.10;;
13953;SDS011;7049;49.444;8.522;2022-08-19T22:34:51;0.70;;;0.70;;
13953;SDS011;7049;49.444;8.522;2022-08-19T22:39:55;1.37;;;1.27;;
13953;SDS011;7049;49.444;8.522;2022-08-19T22:44:57;0.70;;;0.70;;
13953;SDS011;7049;49.444;8.522;2022-08-19T22:49:58;0.80;;;0.80;;
13953;SDS011;7049;49.444;8.522;2022-08-19T22:55:03;1.10;;;1.10;;
13953;SDS011;7049;49.444;8.522;2022-08-19T23:00:07;1.53;;;1.40;;
13953;SDS011;7049;49.444;8.522;2022-08-19T23:05:10;1.30;;;1.20;;
13953;SDS011;7049;49.444;8.522;2022-08-19T23:10:13;0.93;;;0.93;;
13953;SDS011;7049;49.444;8.522;2022-08-19T23:15:16;0.83;;;0.80;;
13953;SDS011;7049;49.444;8.522;2022-08-19T23:20:21;2.47;;;1.17;;
13953;SDS011;7049;49.444;8.522;2022-08-19T23:25:28;0.80;;;0.80;;
13953;SDS011;7049;49.444;8.522;2022-08-19T23:30:31;0.70;;;0.70;;
13953;SDS011;7049;49.444;8.522;2022-08-19T23:35:34;0.97;;;0.87;;
13953;SDS011;7049;49.444;8.522;2022-08-19T23:40:38;1.13;;;0.97;;
13953;SDS011;7049;49.444;8.522;2022-08-19T23:45:40;0.53;;;0.53;;
13953;SDS011;7049;49.444;8.522;2022-08-19T23:50:42;1.00;;;0.80;;
13953;SDS011;7049;49.444;8.522;2022-08-19T23:55:46;0.90;;;0.90;;
